sensor_id;sensor_type;location;lat;lon;timestamp;pressure;altitude;pressure_sealevel;temperature;humidity
62694;BME280;48759;52.544;13.418;2023-06-26T00:02:15;100966.75;;;16.90;100.00
62694;BME280;48759;52.544;13.418;2023-06-26T00:04:42;100970.59;;;16.89;100.00
62694;BME280;48759;52.544;13.418;2023-06-26T00:07:09;100978.22;;;16.93;100.00
62694;BME280;48759;52.544;13.418;2023-06-26T00:09:36;100975.19;;;16.95;100.00
62694;BME280;48759;52.544;13.418;2023-06-26T00:12:06;100979.06;;;16.94;100.00
62694;BME280;48759;52.544;13.418;2023-06-26T00:14:32;100974.00;;;16.91;100.00
62694;BME280;48759;52.544;13.418;2023-06-26T00:16:59;100970.00;;;16.87;100.00
62694;BME280;48759;52.544;13.418;2023-06-26T00:19:26;100973.28;;;16.83;100.00
62694;BME280;48759;52.544;13.418;2023-06-26T00:21:52;100972.66;;;16.81;100.00
62694;BME280;48759;52.544;13.418;2023-06-26T00:24:19;100970.34;;;16.78;100.00
62694;BME280;48759;52.544;13.418;2023-06-26T00:26:47;100969.50;;;16.78;100.00
62694;BME280;48759;52.544;13.418;2023-06-26T00:29:16;100970.13;;;16.68;100.00
62694;BME280;48759;52.544;13.418;2023-06-26T00:31:43;100969.41;;;16.61;100.00
62694;BME280;48759;52.544;13.418;2023-06-26T00:34:10;100970.97;;;16.57;100.00
62694;BME280;48759;52.544;13.418;2023-06-26T00:36:37;100963.59;;;16.51;100.00
62694;BME280;48759;52.544;13.418;2023-06-26T00:39:04;100970.34;;;16.55;100.00
62694;BME280;48759;52.544;13.418;2023-06-26T00:41:30;100959.25;;;16.55;100.00
62694;BME280;48759;52.544;13.418;2023-06-26T00:43:57;100966.50;;;16.56;100.00
62694;BME280;48759;52.544;13.418;2023-06-26T00:46:25;100960.72;;;16.69;100.00
62694;BME280;48759;52.544;13.418;2023-06-26T00:48:52;100964.22;;;16.76;100.00
62694;BME280;48759;52.544;13.418;2023-06-26T00:51:20;100958.16;;;16.79;100.00
62694;BME280;48759;52.544;13.418;2023-06-26T00:53:47;100959.16;;;16.85;100.00
62694;BME280;48759;52.544;13.418;2023-06-26T00:56:15;100962.16;;;16.83;100.00
62694;BME280;48759;52.544;13.418;2023-06-26T00:58:44;100951.03;;;16.83;100.00
62694;BME280;48759;52.544;13.418;2023-06-26T01:01:11;100955.53;;;16.85;100.00
62694;BME280;48759;52.544;13.418;2023-06-26T01:03:43;100951.66;;;16.97;100.00
62694;BME280;48759;52.544;13.418;2023-06-26T01:06:13;100955.38;;;17.03;100.00
62694;BME280;48759;52.544;13.418;2023-06-26T01:08:41;100956.00;;;17.05;100.00
62694;BME280;48759;52.544;13.418;2023-06-26T01:11:09;100950.53;;;17.10;100.00
62694;BME280;48759;52.544;13.418;2023-06-26T01:13:37;100945.22;;;17.20;100.00
62694;BME280;48759;52.544;13.418;2023-06-26T01:16:05;100945.22;;;17.20;100.00
62694;BME280;48759;52.544;13.418;2023-06-26T01:18:32;100945.06;;;17.27;100.00
62694;BME280;48759;52.544;13.418;2023-06-26T01:21:04;100938.19;;;17.29;100.00
62694;BME280;48759;52.544;13.418;2023-06-26T01:23:35;100945.28;;;17.37;100.00
62694;BME280;48759;52.544;13.418;2023-06-26T01:26:15;100938.88;;;17.36;100.00
62694;BME280;48759;52.544;13.418;2023-06-26T01:28:43;100940.47;;;17.32;100.00
62694;BME280;48759;52.544;13.418;2023-06-26T01:31:12;100937.69;;;17.32;100.00
62694;BME280;48759;52.544;13.418;2023-06-26T01:33:40;100931.28;;;17.32;100.00
62694;BME280;48759;52.544;13.418;2023-06-26T01:36:08;100933.47;;;17.30;100.00
62694;BME280;48759;52.544;13.418;2023-06-26T01:38:34;100936.56;;;17.33;100.00
62694;BME280;48759;52.544;13.418;2023-06-26T01:41:01;100924.25;;;17.29;100.00
62694;BME280;48759;52.544;13.418;2023-06-26T01:43:36;100927.91;;;17.30;100.00
62694;BME280;48759;52.544;13.418;2023-06-26T01:46:11;100923.78;;;17.32;100.00
62694;BME280;48759;52.544;13.418;2023-06-26T01:48:47;100919.78;;;17.28;100.00
62694;BME280;48759;52.544;13.418;2023-06-26T01:51:17;100920.28;;;17.25;100.00
62694;BME280;48759;52.544;13.418;2023-06-26T01:53:46;100920.28;;;17.25;100.00
62694;BME280;48759;52.544;13.418;2023-06-26T01:56:18;100920.28;;;17.25;100.00
62694;BME280;48759;52.544;13.418;2023-06-26T01:58:48;100916.91;;;17.23;100.00
62694;BME280;48759;52.544;13.418;2023-06-26T02:01:18;100913.63;;;17.26;100.00
62694;BME280;48759;52.544;13.418;2023-06-26T02:03:45;100910.00;;;17.26;100.00
62694;BME280;48759;52.544;13.418;2023-06-26T02:06:12;100916.63;;;17.36;100.00
62694;BME280;48759;52.544;13.418;2023-06-26T02:08:38;100910.44;;;17.34;100.00
62694;BME280;48759;52.544;13.418;2023-06-26T02:11:05;100905.97;;;17.33;100.00
62694;BME280;48759;52.544;13.418;2023-06-26T02:13:32;100915.44;;;17.32;100.00
62694;BME280;48759;52.544;13.418;2023-06-26T02:16:00;100908.94;;;17.15;100.00
62694;BME280;48759;52.544;13.418;2023-06-26T02:18:27;100910.41;;;17.06;100.00
62694;BME280;48759;52.544;13.418;2023-06-26T02:20:54;100904.94;;;17.11;100.00
62694;BME280;48759;52.544;13.418;2023-06-26T02:23:20;100909.28;;;17.18;100.00
62694;BME280;48759;52.544;13.418;2023-06-26T02:25:48;100901.19;;;17.17;100.00
62694;BME280;48759;52.544;13.418;2023-06-26T02:28:15;100904.34;;;17.20;100.00
62694;BME280;48759;52.544;13.418;2023-06-26T02:30:42;100906.66;;;17.12;100.00
62694;BME280;48759;52.544;13.418;2023-06-26T02:33:10;100903.38;;;17.15;100.00
62694;BME280;48759;52.544;13.418;2023-06-26T02:35:37;100914.00;;;17.18;100.00
62694;BME280;48759;52.544;13.418;2023-06-26T02:38:04;100910.84;;;17.26;100.00
62694;BME280;48759;52.544;13.418;2023-06-26T02:40:31;100916.41;;;17.26;100.00
62694;BME280;48759;52.544;13.418;2023-06-26T02:42:58;100904.78;;;17.29;100.00
62694;BME280;48759;52.544;13.418;2023-06-26T02:45:25;100909.75;;;17.27;100.00
62694;BME280;48759;52.544;13.418;2023-06-26T02:47:51;100901.78;;;17.19;100.00
62694;BME280;48759;52.544;13.418;2023-06-26T02:50:20;100904.72;;;17.12;100.00
62694;BME280;48759;52.544;13.418;2023-06-26T02:52:46;100897.84;;;17.03;100.00
62694;BME280;48759;52.544;13.418;2023-06-26T02:55:16;100898.59;;;16.99;100.00
62694;BME280;48759;52.544;13.418;2023-06-26T02:57:42;100902.91;;;16.95;100.00
62694;BME280;48759;52.544;13.418;2023-06-26T03:00:10;100907.13;;;16.86;100.00
62694;BME280;48759;52.544;13.418;2023-06-26T03:02:37;100898.09;;;16.78;100.00
62694;BME280;48759;52.544;13.418;2023-06-26T03:05:06;100898.59;;;16.75;100.00
62694;BME280;48759;52.544;13.418;2023-06-26T03:07:35;100897.97;;;16.62;100.00
62694;BME280;48759;52.544;13.418;2023-06-26T03:10:02;100898.09;;;16.55;100.00
62694;BME280;48759;52.544;13.418;2023-06-26T03:12:28;100887.59;;;16.57;100.00
62694;BME280;48759;52.544;13.418;2023-06-26T03:14:55;100880.34;;;16.56;100.00
62694;BME280;48759;52.544;13.418;2023-06-26T03:17:22;100877.56;;;16.56;100.00
62694;BME280;48759;52.544;13.418;2023-06-26T03:19:49;100883.00;;;16.63;100.00
62694;BME280;48759;52.544;13.418;2023-06-26T03:22:16;100884.09;;;16.73;100.00
62694;BME280;48759;52.544;13.418;2023-06-26T03:24:45;100883.63;;;16.76;100.00
62694;BME280;48759;52.544;13.418;2023-06-26T03:27:12;100881.41;;;16.78;100.00
62694;BME280;48759;52.544;13.418;2023-06-26T03:29:39;100877.53;;;16.79;100.00
62694;BME280;48759;52.544;13.418;2023-06-26T03:32:06;100883.81;;;16.87;100.00
62694;BME280;48759;52.544;13.418;2023-06-26T03:34:33;100888.47;;;16.69;100.00
62694;BME280;48759;52.544;13.418;2023-06-26T03:37:00;100889.03;;;16.71;100.00
62694;BME280;48759;52.544;13.418;2023-06-26T03:39:27;100878.78;;;16.60;100.00
62694;BME280;48759;52.544;13.418;2023-06-26T03:41:55;100879.63;;;16.61;100.00
62694;BME280;48759;52.544;13.418;2023-06-26T03:44:26;100875.88;;;16.67;100.00
62694;BME280;48759;52.544;13.418;2023-06-26T03:46:53;100864.53;;;16.68;100.00
62694;BME280;48759;52.544;13.418;2023-06-26T03:49:20;100877.53;;;16.79;100.00
62694;BME280;48759;52.544;13.418;2023-06-26T03:51:46;100867.50;;;16.90;100.00
62694;BME280;48759;52.544;13.418;2023-06-26T03:54:13;100869.16;;;17.14;100.00
62694;BME280;48759;52.544;13.418;2023-06-26T03:56:40;100871.75;;;17.33;100.00
62694;BME280;48759;52.544;13.418;2023-06-26T03:59:10;100867.28;;;17.32;100.00
62694;BME280;48759;52.544;13.418;2023-06-26T04:01:37;100865.25;;;17.55;100.00
62694;BME280;48759;52.544;13.418;2023-06-26T04:04:03;100872.69;;;17.67;100.00
62694;BME280;48759;52.544;13.418;2023-06-26T04:06:31;100873.09;;;17.87;100.00
62694;BME280;48759;52.544;13.418;2023-06-26T04:08:58;100868.97;;;18.06;100.00
62694;BME280;48759;52.544;13.418;2023-06-26T04:11:25;100869.03;;;18.11;100.00
62694;BME280;48759;52.544;13.418;2023-06-26T04:13:53;100864.66;;;18.15;100.00
62694;BME280;48759;52.544;13.418;2023-06-26T04:16:21;100860.00;;;18.38;100.00
62694;BME280;48759;52.544;13.418;2023-06-26T04:18:50;100869.16;;;18.50;100.00
62694;BME280;48759;52.544;13.418;2023-06-26T04:21:18;100864.78;;;18.59;100.00
62694;BME280;48759;52.544;13.418;2023-06-26T04:23:45;100863.91;;;18.75;100.00
62694;BME280;48759;52.544;13.418;2023-06-26T04:26:12;100852.47;;;18.93;100.00
62694;BME280;48759;52.544;13.418;2023-06-26T04:28:40;100854.75;;;18.96;100.00
62694;BME280;48759;52.544;13.418;2023-06-26T04:31:07;100853.00;;;19.12;100.00
62694;BME280;48759;52.544;13.418;2023-06-26T04:33:35;100864.63;;;19.26;100.00
62694;BME280;48759;52.544;13.418;2023-06-26T04:36:02;100857.34;;;19.25;100.00
62694;BME280;48759;52.544;13.418;2023-06-26T04:38:29;100858.75;;;19.49;100.00
62694;BME280;48759;52.544;13.418;2023-06-26T04:40:56;100856.38;;;19.36;100.00
62694;BME280;48759;52.544;13.418;2023-06-26T04:43:23;100861.78;;;19.21;100.00
62694;BME280;48759;52.544;13.418;2023-06-26T04:45:50;100862.84;;;19.20;100.00
62694;BME280;48759;52.544;13.418;2023-06-26T04:48:17;100859.41;;;19.13;100.00
62694;BME280;48759;52.544;13.418;2023-06-26T04:50:45;100851.31;;;19.33;100.00
62694;BME280;48759;52.544;13.418;2023-06-26T04:53:18;100852.78;;;19.19;100.00
62694;BME280;48759;52.544;13.418;2023-06-26T04:55:44;100858.75;;;19.05;100.00
62694;BME280;48759;52.544;13.418;2023-06-26T04:58:11;100856.69;;;19.18;100.00
62694;BME280;48759;52.544;13.418;2023-06-26T05:00:38;100855.78;;;19.34;100.00
62694;BME280;48759;52.544;13.418;2023-06-26T05:03:07;100857.56;;;19.45;100.00
62694;BME280;48759;52.544;13.418;2023-06-26T05:05:34;100855.66;;;19.77;100.00
62694;BME280;48759;52.544;13.418;2023-06-26T05:08:15;100850.47;;;20.18;100.00
62694;BME280;48759;52.544;13.418;2023-06-26T05:10:42;100855.72;;;20.46;100.00
62694;BME280;48759;52.544;13.418;2023-06-26T05:13:09;100861.19;;;20.68;100.00
62694;BME280;48759;52.544;13.418;2023-06-26T05:15:36;100856.59;;;20.99;100.00
62694;BME280;48759;52.544;13.418;2023-06-26T05:18:04;100861.22;;;21.25;100.00
62694;BME280;48759;52.544;13.418;2023-06-26T05:20:31;100861.28;;;21.46;100.00
62694;BME280;48759;52.544;13.418;2023-06-26T05:22:59;100852.25;;;21.33;100.00
62694;BME280;48759;52.544;13.418;2023-06-26T05:25:28;100864.06;;;21.51;100.00
62694;BME280;48759;52.544;13.418;2023-06-26T05:27:56;100849.00;;;21.82;100.00
62694;BME280;48759;52.544;13.418;2023-06-26T05:30:24;100844.78;;;21.74;100.00
62694;BME280;48759;52.544;13.418;2023-06-26T05:32:52;100840.91;;;21.91;100.00
62694;BME280;48759;52.544;13.418;2023-06-26T05:35:20;100844.28;;;21.93;100.00
62694;BME280;48759;52.544;13.418;2023-06-26T05:37:48;100834.47;;;21.90;100.00
62694;BME280;48759;52.544;13.418;2023-06-26T05:40:16;100831.59;;;21.65;100.00
62694;BME280;48759;52.544;13.418;2023-06-26T05:42:47;100832.66;;;21.28;100.00
62694;BME280;48759;52.544;13.418;2023-06-26T05:45:16;100820.94;;;21.36;100.00
62694;BME280;48759;52.544;13.418;2023-06-26T05:47:43;100824.72;;;21.10;100.00
62694;BME280;48759;52.544;13.418;2023-06-26T05:50:11;100826.88;;;20.83;100.00
62694;BME280;48759;52.544;13.418;2023-06-26T05:52:38;100815.09;;;20.76;100.00
62694;BME280;48759;52.544;13.418;2023-06-26T05:55:06;100818.47;;;20.78;100.00
62694;BME280;48759;52.544;13.418;2023-06-26T05:57:34;100823.53;;;20.86;100.00
62694;BME280;48759;52.544;13.418;2023-06-26T06:00:04;100821.28;;;20.88;100.00
62694;BME280;48759;52.544;13.418;2023-06-26T06:02:34;100814.19;;;20.65;100.00
62694;BME280;48759;52.544;13.418;2023-06-26T06:05:01;100820.09;;;20.74;100.00
62694;BME280;48759;52.544;13.418;2023-06-26T06:07:28;100812.88;;;20.83;100.00
62694;BME280;48759;52.544;13.418;2023-06-26T06:09:54;100815.03;;;20.71;100.00
62694;BME280;48759;52.544;13.418;2023-06-26T06:12:21;100804.50;;;20.88;100.00
62694;BME280;48759;52.544;13.418;2023-06-26T06:14:48;100808.44;;;20.92;100.00
62694;BME280;48759;52.544;13.418;2023-06-26T06:17:16;100813.25;;;21.07;100.00
62694;BME280;48759;52.544;13.418;2023-06-26T06:19:43;100807.41;;;21.13;100.00
62694;BME280;48759;52.544;13.418;2023-06-26T06:22:09;100814.09;;;21.07;100.00
62694;BME280;48759;52.544;13.418;2023-06-26T06:24:36;100804.06;;;21.21;100.00
62694;BME280;48759;52.544;13.418;2023-06-26T06:27:03;100806.91;;;21.42;100.00
62694;BME280;48759;52.544;13.418;2023-06-26T06:29:30;100804.69;;;21.39;100.00
62694;BME280;48759;52.544;13.418;2023-06-26T06:31:56;100805.53;;;21.44;100.00
62694;BME280;48759;52.544;13.418;2023-06-26T06:34:25;100817.06;;;21.63;100.00
62694;BME280;48759;52.544;13.418;2023-06-26T06:36:51;100813.16;;;21.64;100.00
62694;BME280;48759;52.544;13.418;2023-06-26T06:39:18;100807.81;;;21.62;100.00
62694;BME280;48759;52.544;13.418;2023-06-26T06:41:45;100802.50;;;21.81;100.00
62694;BME280;48759;52.544;13.418;2023-06-26T06:44:13;100791.28;;;21.81;100.00
62694;BME280;48759;52.544;13.418;2023-06-26T06:46:40;100790.16;;;21.77;100.00
62694;BME280;48759;52.544;13.418;2023-06-26T06:49:08;100799.69;;;21.81;100.00
62694;BME280;48759;52.544;13.418;2023-06-26T06:51:36;100799.72;;;21.96;100.00
62694;BME280;48759;52.544;13.418;2023-06-26T06:54:02;100800.88;;;21.95;100.00
62694;BME280;48759;52.544;13.418;2023-06-26T06:56:29;100802.25;;;22.08;100.00
62694;BME280;48759;52.544;13.418;2023-06-26T06:58:56;100791.31;;;22.11;100.00
62694;BME280;48759;52.544;13.418;2023-06-26T07:01:24;100790.97;;;22.28;100.00
62694;BME280;48759;52.544;13.418;2023-06-26T07:03:50;100785.94;;;22.20;100.00
62694;BME280;48759;52.544;13.418;2023-06-26T07:06:17;100793.56;;;22.20;100.00
62694;BME280;48759;52.544;13.418;2023-06-26T07:08:46;100789.03;;;22.24;100.00
62694;BME280;48759;52.544;13.418;2023-06-26T07:11:13;100787.34;;;22.33;100.00
62694;BME280;48759;52.544;13.418;2023-06-26T07:13:39;100787.94;;;22.25;100.00
62694;BME280;48759;52.544;13.418;2023-06-26T07:16:06;100787.88;;;22.40;100.00
62694;BME280;48759;52.544;13.418;2023-06-26T07:18:37;100784.50;;;22.58;100.00
62694;BME280;48759;52.544;13.418;2023-06-26T07:21:04;100786.75;;;22.46;100.00
62694;BME280;48759;52.544;13.418;2023-06-26T07:23:31;100786.22;;;22.39;100.00
62694;BME280;48759;52.544;13.418;2023-06-26T07:25:59;100785.03;;;22.60;100.00
62694;BME280;48759;52.544;13.418;2023-06-26T07:28:26;100788.41;;;22.52;100.00
62694;BME280;48759;52.544;13.418;2023-06-26T07:30:53;100786.41;;;22.73;100.00
62694;BME280;48759;52.544;13.418;2023-06-26T07:33:20;100781.31;;;22.90;100.00
62694;BME280;48759;52.544;13.418;2023-06-26T07:35:46;100780.75;;;22.83;100.00
62694;BME280;48759;52.544;13.418;2023-06-26T07:38:13;100776.13;;;23.07;100.00
62694;BME280;48759;52.544;13.418;2023-06-26T07:40:40;100776.97;;;23.18;100.00
62694;BME280;48759;52.544;13.418;2023-06-26T07:43:08;100771.41;;;23.03;100.00
62694;BME280;48759;52.544;13.418;2023-06-26T07:45:34;100773.50;;;23.31;100.00
62694;BME280;48759;52.544;13.418;2023-06-26T07:48:01;100771.81;;;23.30;100.00
62694;BME280;48759;52.544;13.418;2023-06-26T07:50:28;100771.84;;;23.25;100.00
62694;BME280;48759;52.544;13.418;2023-06-26T07:52:54;100766.25;;;23.25;100.00
62694;BME280;48759;52.544;13.418;2023-06-26T07:55:25;100760.66;;;23.20;100.00
62694;BME280;48759;52.544;13.418;2023-06-26T07:57:52;100756.00;;;23.44;100.00
62694;BME280;48759;52.544;13.418;2023-06-26T08:00:22;100759.28;;;23.56;100.00
62694;BME280;48759;52.544;13.418;2023-06-26T08:02:50;100759.75;;;23.69;100.00
62694;BME280;48759;52.544;13.418;2023-06-26T08:05:17;100755.75;;;23.80;100.00
62694;BME280;48759;52.544;13.418;2023-06-26T08:07:44;100754.63;;;23.81;100.00
62694;BME280;48759;52.544;13.418;2023-06-26T08:10:10;100757.66;;;23.50;100.00
62694;BME280;48759;52.544;13.418;2023-06-26T08:12:37;100752.97;;;23.70;100.00
62694;BME280;48759;52.544;13.418;2023-06-26T08:15:06;100749.38;;;23.64;100.00
62694;BME280;48759;52.544;13.418;2023-06-26T08:17:35;100751.56;;;23.72;100.00
62694;BME280;48759;52.544;13.418;2023-06-26T08:20:02;100749.69;;;23.96;100.00
62694;BME280;48759;52.544;13.418;2023-06-26T08:22:30;100760.78;;;23.83;100.00
62694;BME280;48759;52.544;13.418;2023-06-26T08:24:58;100747.38;;;24.04;100.00
62694;BME280;48759;52.544;13.418;2023-06-26T08:27:25;100749.88;;;24.05;100.00
62694;BME280;48759;52.544;13.418;2023-06-26T08:29:52;100753.00;;;24.04;100.00
62694;BME280;48759;52.544;13.418;2023-06-26T08:32:18;100756.19;;;24.21;100.00
62694;BME280;48759;52.544;13.418;2023-06-26T08:34:46;100744.69;;;24.17;100.00
62694;BME280;48759;52.544;13.418;2023-06-26T08:37:14;100742.06;;;24.26;100.00
62694;BME280;48759;52.544;13.418;2023-06-26T08:39:40;100740.72;;;24.23;100.00
62694;BME280;48759;52.544;13.418;2023-06-26T08:42:07;100734.09;;;24.38;100.00
62694;BME280;48759;52.544;13.418;2023-06-26T08:44:35;100736.63;;;24.40;100.00
62694;BME280;48759;52.544;13.418;2023-06-26T08:47:03;100732.72;;;24.35;100.00
62694;BME280;48759;52.544;13.418;2023-06-26T08:49:36;100734.94;;;24.38;100.00
62694;BME280;48759;52.544;13.418;2023-06-26T08:52:11;100729.66;;;24.56;100.00
62694;BME280;48759;52.544;13.418;2023-06-26T08:54:45;100728.00;;;24.55;100.00
62694;BME280;48759;52.544;13.418;2023-06-26T08:57:14;100734.69;;;24.59;100.00
62694;BME280;48759;52.544;13.418;2023-06-26T08:59:43;100732.75;;;24.78;100.00
62694;BME280;48759;52.544;13.418;2023-06-26T09:02:10;100722.56;;;24.82;100.00
62694;BME280;48759;52.544;13.418;2023-06-26T09:04:37;100724.00;;;24.80;100.00
62694;BME280;48759;52.544;13.418;2023-06-26T09:07:11;100714.88;;;24.88;100.00
62694;BME280;48759;52.544;13.418;2023-06-26T09:09:39;100714.78;;;24.74;100.00
62694;BME280;48759;52.544;13.418;2023-06-26T09:12:08;100712.88;;;24.93;100.00
62694;BME280;48759;52.544;13.418;2023-06-26T09:14:36;100711.09;;;24.97;100.00
62694;BME280;48759;52.544;13.418;2023-06-26T09:17:03;100705.88;;;25.09;100.00
62694;BME280;48759;52.544;13.418;2023-06-26T09:19:30;100711.50;;;25.09;100.00
62694;BME280;48759;52.544;13.418;2023-06-26T09:21:57;100704.66;;;25.16;100.00
62694;BME280;48759;52.544;13.418;2023-06-26T09:24:26;100704.31;;;25.36;100.00
62694;BME280;48759;52.544;13.418;2023-06-26T09:26:53;100709.94;;;25.36;100.00
62694;BME280;48759;52.544;13.418;2023-06-26T09:29:20;100704.31;;;25.36;100.00
62694;BME280;48759;52.544;13.418;2023-06-26T09:31:47;100698.47;;;25.51;100.00
62694;BME280;48759;52.544;13.418;2023-06-26T09:34:14;100691.91;;;25.56;100.00
62694;BME280;48759;52.544;13.418;2023-06-26T09:36:41;100693.59;;;25.38;100.00
62694;BME280;48759;52.544;13.418;2023-06-26T09:39:12;100694.31;;;25.43;100.00
62694;BME280;48759;52.544;13.418;2023-06-26T09:41:42;100688.16;;;25.60;100.00
62694;BME280;48759;52.544;13.418;2023-06-26T09:44:11;100689.94;;;25.56;100.00
62694;BME280;48759;52.544;13.418;2023-06-26T09:46:40;100678.94;;;25.73;100.00
62694;BME280;48759;52.544;13.418;2023-06-26T09:49:09;100679.50;;;26.03;100.00
62694;BME280;48759;52.544;13.418;2023-06-26T09:51:38;100684.72;;;25.96;98.36
62694;BME280;48759;52.544;13.418;2023-06-26T09:54:08;100677.38;;;25.95;100.00
62694;BME280;48759;52.544;13.418;2023-06-26T09:56:36;100678.34;;;26.04;95.76
62694;BME280;48759;52.544;13.418;2023-06-26T09:59:06;100678.56;;;26.07;100.00
62694;BME280;48759;52.544;13.418;2023-06-26T10:01:39;100671.47;;;26.23;100.00
62694;BME280;48759;52.544;13.418;2023-06-26T10:04:07;100667.91;;;26.45;100.00
62694;BME280;48759;52.544;13.418;2023-06-26T10:06:36;100673.88;;;26.57;96.81
62694;BME280;48759;52.544;13.418;2023-06-26T10:09:06;100666.56;;;26.29;95.28
62694;BME280;48759;52.544;13.418;2023-06-26T10:11:40;100659.47;;;26.32;92.70
62694;BME280;48759;52.544;13.418;2023-06-26T10:14:09;100652.66;;;26.33;92.86
62694;BME280;48759;52.544;13.418;2023-06-26T10:16:39;100649.63;;;26.56;99.22
62694;BME280;48759;52.544;13.418;2023-06-26T10:19:10;100650.25;;;26.53;98.47
62694;BME280;48759;52.544;13.418;2023-06-26T10:21:38;100652.56;;;26.51;100.00
62694;BME280;48759;52.544;13.418;2023-06-26T10:24:10;100641.88;;;26.76;100.00
62694;BME280;48759;52.544;13.418;2023-06-26T10:26:44;100634.31;;;26.85;95.68
62694;BME280;48759;52.544;13.418;2023-06-26T10:29:15;100637.19;;;27.07;96.63
62694;BME280;48759;52.544;13.418;2023-06-26T10:31:51;100627.63;;;26.81;95.69
62694;BME280;48759;52.544;13.418;2023-06-26T10:34:20;100632.06;;;26.59;92.08
62694;BME280;48759;52.544;13.418;2023-06-26T10:36:58;100629.31;;;26.82;92.77
62694;BME280;48759;52.544;13.418;2023-06-26T10:39:45;100626.41;;;26.73;95.01
62694;BME280;48759;52.544;13.418;2023-06-26T10:42:14;100625.84;;;26.85;90.65
62694;BME280;48759;52.544;13.418;2023-06-26T10:44:44;100622.78;;;26.95;95.97
62694;BME280;48759;52.544;13.418;2023-06-26T10:47:11;100617.13;;;26.95;94.35
62694;BME280;48759;52.544;13.418;2023-06-26T10:49:38;100613.81;;;27.15;94.20
62694;BME280;48759;52.544;13.418;2023-06-26T10:52:13;100609.44;;;27.31;94.95
62694;BME280;48759;52.544;13.418;2023-06-26T10:54:41;100611.38;;;27.45;94.78
62694;BME280;48759;52.544;13.418;2023-06-26T10:57:08;100617.34;;;27.43;99.54
62694;BME280;48759;52.544;13.418;2023-06-26T10:59:39;100609.44;;;27.54;95.86
62694;BME280;48759;52.544;13.418;2023-06-26T11:02:07;100606.97;;;27.83;95.83
62694;BME280;48759;52.544;13.418;2023-06-26T11:04:40;100601.69;;;27.68;90.71
62694;BME280;48759;52.544;13.418;2023-06-26T11:07:15;100602.72;;;27.72;85.45
62694;BME280;48759;52.544;13.418;2023-06-26T11:09:57;100607.84;;;27.92;91.52
62694;BME280;48759;52.544;13.418;2023-06-26T11:12:36;100598.31;;;28.28;86.50
62694;BME280;48759;52.544;13.418;2023-06-26T11:15:05;100595.31;;;28.24;82.97
62694;BME280;48759;52.544;13.418;2023-06-26T11:17:38;100599.09;;;28.94;80.08
62694;BME280;48759;52.544;13.418;2023-06-26T11:20:14;100584.06;;;29.27;83.57
62694;BME280;48759;52.544;13.418;2023-06-26T11:22:43;100602.91;;;29.41;87.95
62694;BME280;48759;52.544;13.418;2023-06-26T11:25:11;100588.44;;;29.25;77.40
62694;BME280;48759;52.544;13.418;2023-06-26T11:27:38;100591.78;;;29.27;83.41
62694;BME280;48759;52.544;13.418;2023-06-26T11:30:06;100581.06;;;29.41;79.44
62694;BME280;48759;52.544;13.418;2023-06-26T11:32:39;100577.03;;;29.51;82.02
62694;BME280;48759;52.544;13.418;2023-06-26T11:35:07;100564.16;;;29.53;83.81
62694;BME280;48759;52.544;13.418;2023-06-26T11:37:37;100568.31;;;29.64;86.53
62694;BME280;48759;52.544;13.418;2023-06-26T11:40:16;100562.16;;;29.54;86.36
62694;BME280;48759;52.544;13.418;2023-06-26T11:42:44;100561.41;;;29.27;88.14
62694;BME280;48759;52.544;13.418;2023-06-26T11:45:11;100552.75;;;29.07;89.36
62694;BME280;48759;52.544;13.418;2023-06-26T11:47:41;100549.59;;;29.00;92.76
62694;BME280;48759;52.544;13.418;2023-06-26T11:50:15;100547.41;;;29.31;89.02
62694;BME280;48759;52.544;13.418;2023-06-26T11:52:41;100548.69;;;29.51;89.63
62694;BME280;48759;52.544;13.418;2023-06-26T11:55:12;100532.13;;;29.53;75.08
62694;BME280;48759;52.544;13.418;2023-06-26T11:57:39;100533.34;;;29.43;86.70
62694;BME280;48759;52.544;13.418;2023-06-26T12:00:13;100527.75;;;29.09;88.06
62694;BME280;48759;52.544;13.418;2023-06-26T12:02:42;100515.44;;;28.79;79.17
62694;BME280;48759;52.544;13.418;2023-06-26T12:05:09;100523.44;;;29.03;75.96
62694;BME280;48759;52.544;13.418;2023-06-26T12:07:41;100518.09;;;28.75;88.73
62694;BME280;48759;52.544;13.418;2023-06-26T12:10:10;100511.78;;;28.96;79.85
62694;BME280;48759;52.544;13.418;2023-06-26T12:12:38;100509.94;;;28.91;79.51
62694;BME280;48759;52.544;13.418;2023-06-26T12:15:07;100496.38;;;29.14;73.72
62694;BME280;48759;52.544;13.418;2023-06-26T12:17:38;100498.22;;;29.10;73.39
62694;BME280;48759;52.544;13.418;2023-06-26T12:20:21;100502.41;;;29.04;71.52
62694;BME280;48759;52.544;13.418;2023-06-26T12:22:49;100499.09;;;29.02;81.65
62694;BME280;48759;52.544;13.418;2023-06-26T12:25:22;100478.56;;;28.96;79.04
62694;BME280;48759;52.544;13.418;2023-06-26T12:27:53;100478.97;;;29.41;77.63
62694;BME280;48759;52.544;13.418;2023-06-26T12:30:20;100481.19;;;29.74;79.85
62694;BME280;48759;52.544;13.418;2023-06-26T12:32:47;100483.84;;;29.79;63.48
62694;BME280;48759;52.544;13.418;2023-06-26T12:35:15;100476.00;;;29.76;69.54
62694;BME280;48759;52.544;13.418;2023-06-26T12:37:48;100488.59;;;30.16;74.59
62694;BME280;48759;52.544;13.418;2023-06-26T12:40:19;100476.94;;;30.38;64.46